createdAt,value
2023-03-15T00:00:49.219Z,1.10
2023-03-15T00:03:18.164Z,0.85
2023-03-15T00:05:46.372Z,1.00
2023-03-15T00:08:14.343Z,1.10
2023-03-15T00:10:42.833Z,1.00
2023-03-15T00:13:10.342Z,0.80
2023-03-15T00:15:37.994Z,1.05
2023-03-15T00:18:05.569Z,1.15
2023-03-15T00:20:34.414Z,1.23
2023-03-15T00:23:02.032Z,1.20
2023-03-15T00:25:29.536Z,1.00
2023-03-15T00:27:57.071Z,1.00
2023-03-15T00:30:24.660Z,1.10
2023-03-15T00:32:53.777Z,0.98
2023-03-15T00:35:21.482Z,1.05
2023-03-15T00:37:50.325Z,0.50
2023-03-15T00:40:18.133Z,1.10
2023-03-15T00:42:49.928Z,0.57
2023-03-15T00:45:17.805Z,1.33
2023-03-15T00:47:45.385Z,1.13
2023-03-15T00:50:12.958Z,1.05
2023-03-15T00:52:41.924Z,1.00
2023-03-15T00:55:14.056Z,1.17
2023-03-15T00:57:42.098Z,0.85
2023-03-15T01:00:11.864Z,1.33
2023-03-15T01:02:39.365Z,0.82
2023-03-15T01:05:08.227Z,0.90
2023-03-15T01:07:36.079Z,1.05
2023-03-15T01:10:04.451Z,0.57
2023-03-15T01:12:33.888Z,0.70
2023-03-15T01:15:01.453Z,0.90
2023-03-15T01:17:29.273Z,0.95
2023-03-15T01:19:56.817Z,1.23
2023-03-15T01:22:24.304Z,1.67
2023-03-15T01:24:51.803Z,1.20
2023-03-15T01:27:19.340Z,0.65
2023-03-15T01:29:48.181Z,1.58
2023-03-15T01:32:15.705Z,1.20
2023-03-15T01:34:43.798Z,1.00
2023-03-15T01:37:14.367Z,1.17
2023-03-15T01:39:41.890Z,0.70
2023-03-15T01:42:09.520Z,0.98
2023-03-15T01:44:51.727Z,0.80
2023-03-15T01:47:19.542Z,0.80
2023-03-15T01:49:47.901Z,0.70
2023-03-15T01:52:18.808Z,0.70
2023-03-15T01:54:48.054Z,1.10
2023-03-15T01:57:17.645Z,0.80
2023-03-15T01:59:46.925Z,0.60
2023-03-15T02:02:15.895Z,1.10
2023-03-15T02:04:46.490Z,1.38
2023-03-15T02:07:14.509Z,0.50
2023-03-15T02:09:45.336Z,0.65
2023-03-15T02:12:13.019Z,1.17
2023-03-15T02:14:41.764Z,0.80
2023-03-15T02:17:09.313Z,0.77
2023-03-15T02:19:42.909Z,1.05
2023-03-15T02:22:15.230Z,0.82
2023-03-15T02:24:46.548Z,1.10
2023-03-15T02:27:14.136Z,1.17
2023-03-15T02:29:43.118Z,0.85
2023-03-15T02:32:10.597Z,0.90
2023-03-15T02:34:38.108Z,0.60
2023-03-15T02:37:05.623Z,1.00
2023-03-15T02:39:33.126Z,0.60
2023-03-15T02:42:01.800Z,1.08
2023-03-15T02:44:30.587Z,0.90
2023-03-15T02:47:02.210Z,0.80
2023-03-15T02:51:57.125Z,0.85
2023-03-15T02:54:24.597Z,0.90
2023-03-15T02:56:52.112Z,1.02
2023-03-15T02:59:19.636Z,1.15
2023-03-15T03:01:47.119Z,1.00
2023-03-15T03:04:15.957Z,1.20
2023-03-15T03:06:43.913Z,0.95
2023-03-15T03:09:11.674Z,1.08
2023-03-15T03:11:39.212Z,0.80
2023-03-15T03:14:06.688Z,1.25
2023-03-15T03:16:34.301Z,1.13
2023-03-15T03:19:02.236Z,1.10
2023-03-15T03:21:31.117Z,1.13
2023-03-15T03:23:58.594Z,1.10
2023-03-15T03:26:28.104Z,0.90
2023-03-15T03:28:56.109Z,0.60
2023-03-15T03:31:24.352Z,0.98
2023-03-15T03:33:52.277Z,0.90
2023-03-15T03:36:19.829Z,1.05
2023-03-15T03:38:48.668Z,0.93
2023-03-15T03:41:16.174Z,0.90
2023-03-15T03:43:43.692Z,1.08
2023-03-15T03:46:11.398Z,1.15
2023-03-15T03:48:38.960Z,1.10
2023-03-15T03:51:06.761Z,0.73
2023-03-15T03:53:34.287Z,1.00
2023-03-15T03:56:05.018Z,0.57
2023-03-15T03:58:32.521Z,0.80
2023-03-15T04:01:00.027Z,0.88
2023-03-15T04:03:28.320Z,0.85
2023-03-15T04:05:56.214Z,1.13
2023-03-15T04:08:24.145Z,0.95
2023-03-15T04:10:52.190Z,1.35
2023-03-15T04:13:21.402Z,0.90
2023-03-15T04:15:49.069Z,0.88
2023-03-15T04:18:16.626Z,1.17
2023-03-15T04:20:46.690Z,0.88
2023-03-15T04:23:14.646Z,1.02
2023-03-15T04:25:42.386Z,1.23
2023-03-15T04:28:14.406Z,1.00
2023-03-15T04:30:43.310Z,1.38
2023-03-15T04:33:10.846Z,1.13
2023-03-15T04:35:39.042Z,1.00
2023-03-15T04:38:06.901Z,1.02
2023-03-15T04:40:35.381Z,1.23
2023-03-15T04:43:03.452Z,1.10
2023-03-15T04:45:31.539Z,0.90
2023-03-15T04:48:01.329Z,1.02
2023-03-15T04:50:29.220Z,0.90
2023-03-15T04:52:58.234Z,1.50
2023-03-15T04:55:25.837Z,1.20
2023-03-15T04:57:53.382Z,1.10
2023-03-15T05:00:21.652Z,0.93
2023-03-15T05:02:54.746Z,1.30
2023-03-15T05:05:24.225Z,1.10
2023-03-15T05:07:51.771Z,1.25
2023-03-15T05:10:19.461Z,1.10
2023-03-15T05:12:46.986Z,0.90
2023-03-15T05:15:14.601Z,1.60
2023-03-15T05:17:42.230Z,1.50
2023-03-15T05:20:12.544Z,1.27
2023-03-15T05:22:41.717Z,1.45
2023-03-15T05:25:09.759Z,1.60
2023-03-15T05:27:37.565Z,1.50
2023-03-15T05:30:05.790Z,1.30
2023-03-15T05:32:34.709Z,1.27
2023-03-15T05:35:02.437Z,1.27
2023-03-15T05:37:30.432Z,1.27
2023-03-15T05:39:59.351Z,1.10
2023-03-15T05:42:27.098Z,1.15
2023-03-15T05:44:54.902Z,1.10
2023-03-15T05:47:22.842Z,0.90
2023-03-15T05:49:50.814Z,1.05
2023-03-15T05:52:18.336Z,1.02
2023-03-15T05:54:45.957Z,1.00
2023-03-15T05:57:14.821Z,1.13
2023-03-15T05:59:42.348Z,1.20
2023-03-15T06:02:10.219Z,1.27
2023-03-15T06:04:38.027Z,1.25
2023-03-15T06:07:05.513Z,1.10
2023-03-15T06:09:33.121Z,1.20
2023-03-15T06:12:00.631Z,1.20
2023-03-15T06:14:29.583Z,1.20
2023-03-15T06:16:57.198Z,1.20
2023-03-15T06:19:25.768Z,1.00
2023-03-15T06:21:53.222Z,1.00
2023-03-15T06:24:20.684Z,1.10
2023-03-15T06:26:48.196Z,1.20
2023-03-15T06:29:17.119Z,1.20
2023-03-15T06:31:48.049Z,1.50
2023-03-15T06:34:15.521Z,1.23
2023-03-15T06:36:43.293Z,1.30
2023-03-15T06:39:12.406Z,0.70
2023-03-15T06:41:41.645Z,1.65
2023-03-15T06:44:09.543Z,0.85
2023-03-15T06:46:37.288Z,0.80
2023-03-15T06:49:06.174Z,1.20
2023-03-15T06:51:33.682Z,1.10
2023-03-15T06:54:01.169Z,1.52
2023-03-15T06:56:28.940Z,1.52
2023-03-15T06:58:56.415Z,1.10
2023-03-15T07:01:23.993Z,1.30
2023-03-15T07:03:51.603Z,1.60
2023-03-15T07:06:20.467Z,1.30
2023-03-15T07:08:47.999Z,1.58
2023-03-15T07:11:15.495Z,1.95
2023-03-15T07:13:43.005Z,1.58
2023-03-15T07:16:10.538Z,1.85
2023-03-15T07:18:38.085Z,1.30
2023-03-15T07:21:06.880Z,1.50
2023-03-15T07:23:35.791Z,1.10
2023-03-15T07:26:03.267Z,1.30
2023-03-15T07:28:30.896Z,1.40
2023-03-15T07:30:59.334Z,1.30
2023-03-15T07:33:27.719Z,1.10
2023-03-15T07:35:55.616Z,1.00
2023-03-15T07:38:23.694Z,1.40
2023-03-15T07:40:52.595Z,1.20
2023-03-15T07:43:20.314Z,1.10
2023-03-15T07:45:47.829Z,1.30
2023-03-15T07:48:15.329Z,1.17
2023-03-15T07:50:42.998Z,1.40
2023-03-15T07:53:10.628Z,1.25
2023-03-15T07:55:38.129Z,0.95
2023-03-15T07:58:07.045Z,1.55
2023-03-15T08:00:34.510Z,0.93
2023-03-15T08:03:02.050Z,1.50
2023-03-15T08:05:29.610Z,1.60
2023-03-15T08:07:57.310Z,1.77
2023-03-15T08:10:24.837Z,1.35
2023-03-15T08:12:52.303Z,1.48
2023-03-15T08:15:21.526Z,1.80
2023-03-15T08:17:49.582Z,1.67
2023-03-15T08:20:18.556Z,1.45
2023-03-15T08:22:46.079Z,1.33
2023-03-15T08:25:15.253Z,1.02
2023-03-15T08:27:43.040Z,1.63
2023-03-15T08:30:12.409Z,1.20
2023-03-15T08:32:41.429Z,1.52
2023-03-15T08:35:09.458Z,1.70
2023-03-15T08:37:36.980Z,1.48
2023-03-15T08:40:09.388Z,1.42
2023-03-15T08:42:37.456Z,1.05
2023-03-15T08:45:06.995Z,1.25
2023-03-15T08:47:35.380Z,1.50
2023-03-15T08:50:05.490Z,1.52
2023-03-15T08:52:33.383Z,1.58
2023-03-15T08:55:01.101Z,1.40
2023-03-15T08:57:29.280Z,1.70
2023-03-15T08:59:57.572Z,1.25
2023-03-15T09:02:25.325Z,1.90
2023-03-15T09:04:53.606Z,2.00
2023-03-15T09:07:22.726Z,1.77
2023-03-15T09:09:54.286Z,1.60
2023-03-15T09:12:22.241Z,1.77
2023-03-15T09:14:49.748Z,1.60
2023-03-15T09:17:17.287Z,2.30
2023-03-15T09:19:44.773Z,2.00
2023-03-15T09:22:16.578Z,1.40
2023-03-15T09:24:52.858Z,1.63
2023-03-15T09:27:20.390Z,1.70
2023-03-15T09:29:47.874Z,3.50
2023-03-15T09:32:15.900Z,1.65
2023-03-15T09:34:43.488Z,1.85
2023-03-15T09:37:11.263Z,1.17
2023-03-15T09:39:38.745Z,1.85
2023-03-15T09:42:09.919Z,1.52
2023-03-15T09:44:41.595Z,1.50
2023-03-15T09:47:14.093Z,1.45
2023-03-15T09:49:45.197Z,1.20
2023-03-15T09:52:16.960Z,1.35
2023-03-15T09:54:47.165Z,1.20
2023-03-15T09:57:19.721Z,1.65
2023-03-15T09:59:48.119Z,1.33
2023-03-15T10:02:18.602Z,1.20
2023-03-15T10:04:47.220Z,1.50
2023-03-15T10:07:16.491Z,1.23
2023-03-15T10:09:44.293Z,1.40
2023-03-15T10:12:13.525Z,1.45
2023-03-15T10:14:56.885Z,1.30
2023-03-15T10:17:29.731Z,1.20
2023-03-15T10:20:01.268Z,1.30
2023-03-15T10:22:30.644Z,1.70
2023-03-15T10:24:59.791Z,1.42
2023-03-15T10:27:30.826Z,1.52
2023-03-15T10:30:00.397Z,1.67
2023-03-15T10:32:29.353Z,1.33
2023-03-15T10:34:58.670Z,1.38
2023-03-15T10:37:26.482Z,1.27
2023-03-15T10:39:55.948Z,1.05
2023-03-15T10:42:27.081Z,1.33
2023-03-15T10:44:54.591Z,1.00
2023-03-15T10:47:24.941Z,0.82
2023-03-15T10:49:57.089Z,0.93
2023-03-15T10:52:35.216Z,0.85
2023-03-15T10:55:05.264Z,1.27
2023-03-15T10:57:35.644Z,0.90
2023-03-15T11:00:06.668Z,1.40
2023-03-15T11:02:35.981Z,1.25
2023-03-15T11:05:04.846Z,1.67
2023-03-15T11:07:35.903Z,1.27
2023-03-15T11:10:05.509Z,1.20
2023-03-15T11:12:34.742Z,1.70
2023-03-15T11:15:04.522Z,1.20
2023-03-15T11:17:33.318Z,0.80
2023-03-15T11:20:13.105Z,1.67
2023-03-15T11:22:40.975Z,1.10
2023-03-15T11:25:12.867Z,0.95
2023-03-15T11:27:41.549Z,1.40
2023-03-15T11:30:14.550Z,0.80
2023-03-15T11:32:43.056Z,0.98
2023-03-15T11:35:14.436Z,1.10
2023-03-15T11:40:16.095Z,1.13
2023-03-15T11:42:48.071Z,0.93
2023-03-15T11:45:19.080Z,0.82
2023-03-15T11:47:49.210Z,0.80
2023-03-15T11:50:18.236Z,0.85
2023-03-15T11:52:48.844Z,1.08
2023-03-15T11:55:20.984Z,1.20
2023-03-15T11:57:49.286Z,0.95
2023-03-15T12:00:32.082Z,1.13
2023-03-15T12:03:01.853Z,1.15
2023-03-15T12:05:44.121Z,0.60
2023-03-15T12:08:18.884Z,0.68
2023-03-15T12:10:47.431Z,0.90
2023-03-15T12:13:19.878Z,0.65
2023-03-15T12:15:48.770Z,0.80
2023-03-15T12:18:23.455Z,1.33
2023-03-15T12:20:54.445Z,1.00
2023-03-15T12:23:23.888Z,0.73
2023-03-15T12:25:55.514Z,1.10
2023-03-15T12:28:26.401Z,1.05
2023-03-15T12:30:56.376Z,0.80
2023-03-15T12:33:24.535Z,1.30
2023-03-15T12:35:59.772Z,0.80
2023-03-15T12:38:32.998Z,1.10
2023-03-15T12:41:00.673Z,0.85
2023-03-15T12:43:38.282Z,0.90
2023-03-15T12:46:06.203Z,0.95
2023-03-15T12:48:33.758Z,1.45
2023-03-15T12:51:07.429Z,1.00
2023-03-15T12:53:43.682Z,1.10
2023-03-15T12:56:26.068Z,0.80
2023-03-15T12:58:55.171Z,1.00
2023-03-15T13:01:25.779Z,0.80
2023-03-15T13:03:55.560Z,1.02
2023-03-15T13:06:36.211Z,0.80
2023-03-15T13:09:10.343Z,0.75
2023-03-15T13:11:40.145Z,0.82
2023-03-15T13:14:14.969Z,0.60
2023-03-15T13:16:44.720Z,0.90
2023-03-15T13:19:19.808Z,1.00
2023-03-15T13:26:49.340Z,1.00
2023-03-15T13:29:19.417Z,0.88
2023-03-15T13:31:48.127Z,0.70
2023-03-15T13:34:17.201Z,0.80
2023-03-15T13:36:46.303Z,1.13
2023-03-15T13:39:24.296Z,0.85
2023-03-15T13:41:57.930Z,0.60
2023-03-15T13:44:25.934Z,1.00
2023-03-15T13:46:54.479Z,0.95
2023-03-15T13:49:22.107Z,0.63
2023-03-15T13:51:50.058Z,0.68
2023-03-15T13:54:19.078Z,0.80
2023-03-15T13:56:59.441Z,0.77
2023-03-15T13:59:32.661Z,0.73
2023-03-15T14:02:02.394Z,0.93
2023-03-15T14:04:31.527Z,0.82
2023-03-15T14:07:16.565Z,0.90
2023-03-15T14:09:44.229Z,1.10
2023-03-15T14:12:19.179Z,1.02
2023-03-15T14:14:49.929Z,0.98
2023-03-15T14:17:20.334Z,1.00
2023-03-15T14:19:53.333Z,0.88
2023-03-15T14:22:20.931Z,0.93
2023-03-15T14:24:49.264Z,1.00
2023-03-15T14:27:19.408Z,0.80
2023-03-15T14:29:49.327Z,0.98
2023-03-15T14:32:25.317Z,0.80
2023-03-15T14:34:59.056Z,1.00
2023-03-15T15:11:51.580Z,0.60
2023-03-15T15:51:29.048Z,0.70
2023-03-15T15:53:58.120Z,0.88
2023-03-15T15:56:29.541Z,0.65
2023-03-15T15:58:57.476Z,0.70
2023-03-15T16:01:25.700Z,1.00
2023-03-15T16:03:53.284Z,1.02
2023-03-15T16:06:21.947Z,0.75
2023-03-15T16:08:53.131Z,0.75
2023-03-15T16:11:20.829Z,0.60
2023-03-15T16:13:50.216Z,1.20
2023-03-15T16:16:18.157Z,1.10
2023-03-15T16:18:46.149Z,0.63
2023-03-15T16:21:15.901Z,0.90
2023-03-15T16:23:43.905Z,0.98
2023-03-15T16:26:15.280Z,0.68
2023-03-15T16:28:42.808Z,0.70
2023-03-15T16:31:12.464Z,0.98
2023-03-15T16:33:40.052Z,0.70
2023-03-15T16:36:07.784Z,1.73
2023-03-15T16:38:36.183Z,1.08
2023-03-15T16:41:03.701Z,0.95
2023-03-15T16:43:32.714Z,1.13
2023-03-15T16:46:00.262Z,0.80
2023-03-15T16:48:28.651Z,0.45
2023-03-15T16:50:56.324Z,0.63
2023-03-15T16:53:25.300Z,0.70
2023-03-15T16:55:52.917Z,0.90
2023-03-15T16:58:20.495Z,1.30
2023-03-15T17:00:49.466Z,1.00
2023-03-15T17:03:17.611Z,1.45
2023-03-15T17:05:46.093Z,0.85
2023-03-15T17:08:16.462Z,2.15
2023-03-15T17:10:44.054Z,1.05
2023-03-15T17:13:14.134Z,1.25
2023-03-15T17:15:41.789Z,1.02
2023-03-15T17:18:15.195Z,1.00
2023-03-15T17:20:42.685Z,0.80
2023-03-15T17:23:10.595Z,0.90
2023-03-15T17:25:38.132Z,0.90
2023-03-15T17:28:06.082Z,0.70
2023-03-15T17:30:34.506Z,1.00
2023-03-15T17:33:02.756Z,0.95
2023-03-15T17:35:33.642Z,0.90
2023-03-15T17:38:01.481Z,1.10
2023-03-15T17:40:29.626Z,0.80
2023-03-15T17:42:57.970Z,1.00
2023-03-15T17:45:26.343Z,1.58
2023-03-15T17:47:55.262Z,1.05
2023-03-15T17:50:23.564Z,1.30
2023-03-15T17:52:55.230Z,1.02
2023-03-15T17:55:24.003Z,0.63
2023-03-15T17:57:55.220Z,0.75
2023-03-15T18:00:23.409Z,1.08
2023-03-15T18:02:58.840Z,1.20
2023-03-15T18:05:31.240Z,0.93
2023-03-15T18:08:00.622Z,1.05
2023-03-15T18:10:32.525Z,1.25
2023-03-15T18:13:00.050Z,1.10
2023-03-15T18:15:27.566Z,1.10
2023-03-15T18:17:55.103Z,1.23
2023-03-15T18:20:23.990Z,0.98
2023-03-15T18:22:51.950Z,1.10
2023-03-15T18:25:21.762Z,1.10
2023-03-15T18:27:49.770Z,1.20
2023-03-15T18:30:18.841Z,1.20
2023-03-15T18:32:46.498Z,1.13
2023-03-15T18:35:15.767Z,1.10
2023-03-15T18:37:43.365Z,1.13
2023-03-15T18:40:12.487Z,1.50
2023-03-15T18:42:41.345Z,0.63
2023-03-15T18:45:09.629Z,1.00
2023-03-15T18:47:37.092Z,0.90
2023-03-15T18:50:10.716Z,0.90
2023-03-15T18:52:38.530Z,1.08
2023-03-15T18:55:07.736Z,1.13
2023-03-15T18:57:35.301Z,0.80
2023-03-15T19:00:12.970Z,0.88
2023-03-15T19:02:41.241Z,1.17
2023-03-15T19:05:09.547Z,0.77
2023-03-15T19:07:37.620Z,1.00
2023-03-15T19:10:05.933Z,0.80
2023-03-15T19:12:33.808Z,1.08
2023-03-15T19:15:01.354Z,1.15
2023-03-15T19:17:30.263Z,1.00
2023-03-15T19:19:57.728Z,0.82
2023-03-15T19:22:26.479Z,1.00
2023-03-15T19:24:53.978Z,0.90
2023-03-15T19:27:21.495Z,1.20
2023-03-15T19:29:48.982Z,1.20
2023-03-15T19:32:16.516Z,1.08
2023-03-15T19:34:45.466Z,1.05
2023-03-15T19:37:13.080Z,0.80
2023-03-15T19:39:40.678Z,1.13
2023-03-15T19:42:08.205Z,0.85
2023-03-15T19:44:36.176Z,1.00
2023-03-15T19:47:03.811Z,0.98
2023-03-15T19:49:31.344Z,1.08
2023-03-15T19:52:00.242Z,1.60
2023-03-15T19:54:30.815Z,1.00
2023-03-15T19:56:58.662Z,0.98
2023-03-15T19:59:26.317Z,1.00
2023-03-15T20:01:54.073Z,1.00
2023-03-15T20:04:21.745Z,1.27
2023-03-15T20:06:49.300Z,1.83
2023-03-15T20:09:18.218Z,1.00
2023-03-15T20:11:45.755Z,1.38
2023-03-15T20:14:13.239Z,1.88
2023-03-15T20:16:40.792Z,1.50
2023-03-15T20:19:08.289Z,1.48
2023-03-15T20:21:35.952Z,1.23
2023-03-15T20:24:04.165Z,0.95
2023-03-15T20:26:33.192Z,1.50
2023-03-15T20:29:01.198Z,1.23
2023-03-15T20:31:28.780Z,1.45
2023-03-15T20:33:56.301Z,1.50
2023-03-15T20:36:23.820Z,1.42
2023-03-15T20:38:51.689Z,1.63
2023-03-15T20:41:19.285Z,2.03
2023-03-15T20:43:48.193Z,1.98
2023-03-15T20:46:16.746Z,2.05
2023-03-15T20:48:44.312Z,1.60
2023-03-15T20:51:11.937Z,1.60
2023-03-15T20:53:39.472Z,1.65
2023-03-15T20:56:07.456Z,2.00
2023-03-15T20:58:35.046Z,1.35
2023-03-15T21:01:05.143Z,1.60
2023-03-15T21:03:34.433Z,1.83
2023-03-15T21:06:02.389Z,1.83
2023-03-15T21:08:30.266Z,2.53
2023-03-15T21:10:57.806Z,2.17
2023-03-15T21:13:25.384Z,1.90
2023-03-15T21:15:53.226Z,1.63
2023-03-15T21:18:23.099Z,1.80
2023-03-15T21:20:56.281Z,1.85
2023-03-15T21:23:23.810Z,1.70
2023-03-15T21:25:54.177Z,1.95
2023-03-15T21:28:21.806Z,1.70
2023-03-15T21:30:51.148Z,1.73
2023-03-15T21:33:18.802Z,1.58
2023-03-15T21:35:47.781Z,2.08
2023-03-15T21:38:15.294Z,2.30
2023-03-15T21:40:43.978Z,1.88
2023-03-15T21:43:11.552Z,1.92
2023-03-15T21:45:39.316Z,1.90
2023-03-15T21:48:07.095Z,1.77
2023-03-15T21:50:34.657Z,1.90
2023-03-15T21:53:03.537Z,1.80
2023-03-15T21:55:33.489Z,1.70
2023-03-15T21:58:01.737Z,1.85
2023-03-15T22:00:29.652Z,2.33
2023-03-15T22:02:57.168Z,1.83
2023-03-15T22:05:24.812Z,1.70
2023-03-15T22:07:52.308Z,2.55
2023-03-15T22:10:22.515Z,2.30
2023-03-15T22:12:50.144Z,2.00
2023-03-15T22:15:17.711Z,1.38
2023-03-15T22:17:45.955Z,1.70
2023-03-15T22:20:16.851Z,1.92
2023-03-15T22:22:44.936Z,1.50
2023-03-15T22:25:12.757Z,1.60
2023-03-15T22:27:42.153Z,1.80
2023-03-15T22:30:10.605Z,1.85
2023-03-15T22:32:38.118Z,1.40
2023-03-15T22:35:06.058Z,1.27
2023-03-15T22:37:34.533Z,1.10
2023-03-15T22:40:01.983Z,1.25
2023-03-15T22:42:29.474Z,1.58
2023-03-15T22:44:58.440Z,1.45
2023-03-15T22:47:26.009Z,1.70
2023-03-15T22:49:55.375Z,1.73
2023-03-15T22:52:22.914Z,1.33
2023-03-15T22:54:50.421Z,2.20
2023-03-15T22:57:17.947Z,1.85
2023-03-15T22:59:45.609Z,1.60
2023-03-15T23:02:14.461Z,1.85
2023-03-15T23:04:42.076Z,1.63
2023-03-15T23:07:09.956Z,1.50
2023-03-15T23:09:37.474Z,1.92
2023-03-15T23:12:05.050Z,1.23
2023-03-15T23:14:32.541Z,1.90
2023-03-15T23:17:03.158Z,1.58
2023-03-15T23:19:34.328Z,1.80
2023-03-15T23:22:02.036Z,1.67
2023-03-15T23:24:29.579Z,1.35
2023-03-15T23:26:57.499Z,1.45
2023-03-15T23:29:24.995Z,1.23
2023-03-15T23:31:52.533Z,1.40
2023-03-15T23:34:20.025Z,1.45
2023-03-15T23:36:48.958Z,1.40
2023-03-15T23:39:17.405Z,1.25
2023-03-15T23:41:45.466Z,1.15
2023-03-15T23:44:13.099Z,1.20
2023-03-15T23:46:41.181Z,1.30
2023-03-15T23:49:09.238Z,1.15
2023-03-15T23:51:36.690Z,1.85
2023-03-15T23:54:05.551Z,1.23
2023-03-15T23:56:33.581Z,1.23
2023-03-15T23:59:01.138Z,2.38
